sensor_id;sensor_type;location;lat;lon;timestamp;temperature;humidity
16198;DHT22;8206;51.440;6.914;2023-11-21T00:01:44;7.30;99.90
16198;DHT22;8206;51.440;6.914;2023-11-21T00:04:12;7.30;99.90
16198;DHT22;8206;51.440;6.914;2023-11-21T00:06:38;7.30;99.90
16198;DHT22;8206;51.440;6.914;2023-11-21T00:09:06;7.20;99.90
16198;DHT22;8206;51.440;6.914;2023-11-21T00:11:34;7.20;99.90
16198;DHT22;8206;51.440;6.914;2023-11-21T00:14:00;7.20;99.90
16198;DHT22;8206;51.440;6.914;2023-11-21T00:16:28;7.20;99.90
16198;DHT22;8206;51.440;6.914;2023-11-21T00:18:55;7.30;99.90
16198;DHT22;8206;51.440;6.914;2023-11-21T00:21:23;7.40;99.90
16198;DHT22;8206;51.440;6.914;2023-11-21T00:23:49;7.40;99.90
16198;DHT22;8206;51.440;6.914;2023-11-21T00:26:16;7.50;99.90
16198;DHT22;8206;51.440;6.914;2023-11-21T00:28:43;7.50;99.90
16198;DHT22;8206;51.440;6.914;2023-11-21T00:31:10;7.50;99.90
16198;DHT22;8206;51.440;6.914;2023-11-21T00:33:37;7.60;99.90
16198;DHT22;8206;51.440;6.914;2023-11-21T00:36:05;7.60;99.90
16198;DHT22;8206;51.440;6.914;2023-11-21T00:38:36;7.60;99.90
16198;DHT22;8206;51.440;6.914;2023-11-21T00:41:05;7.70;99.90
16198;DHT22;8206;51.440;6.914;2023-11-21T00:43:32;7.70;99.90
16198;DHT22;8206;51.440;6.914;2023-11-21T00:45:59;7.70;99.90
16198;DHT22;8206;51.440;6.914;2023-11-21T00:48:25;7.80;99.90
16198;DHT22;8206;51.440;6.914;2023-11-21T00:50:52;7.80;99.90
16198;DHT22;8206;51.440;6.914;2023-11-21T00:53:19;7.80;99.90
16198;DHT22;8206;51.440;6.914;2023-11-21T00:55:47;7.80;99.90
16198;DHT22;8206;51.440;6.914;2023-11-21T00:58:13;7.80;99.90
16198;DHT22;8206;51.440;6.914;2023-11-21T01:00:40;7.90;99.90
16198;DHT22;8206;51.440;6.914;2023-11-21T01:03:07;7.90;99.90
16198;DHT22;8206;51.440;6.914;2023-11-21T01:05:34;7.80;99.90
16198;DHT22;8206;51.440;6.914;2023-11-21T01:08:01;7.80;99.90
16198;DHT22;8206;51.440;6.914;2023-11-21T01:10:27;7.70;99.90
16198;DHT22;8206;51.440;6.914;2023-11-21T01:12:55;7.70;99.90
16198;DHT22;8206;51.440;6.914;2023-11-21T01:15:23;7.70;99.90
16198;DHT22;8206;51.440;6.914;2023-11-21T01:17:51;7.70;99.90
16198;DHT22;8206;51.440;6.914;2023-11-21T01:20:18;7.60;99.90
16198;DHT22;8206;51.440;6.914;2023-11-21T01:22:45;7.70;99.90
16198;DHT22;8206;51.440;6.914;2023-11-21T01:25:14;7.70;99.90
16198;DHT22;8206;51.440;6.914;2023-11-21T01:27:42;7.70;99.90
16198;DHT22;8206;51.440;6.914;2023-11-21T01:30:10;7.70;99.90
16198;DHT22;8206;51.440;6.914;2023-11-21T01:32:37;7.70;99.90
16198;DHT22;8206;51.440;6.914;2023-11-21T01:35:04;7.70;99.90
16198;DHT22;8206;51.440;6.914;2023-11-21T01:37:32;7.70;99.90
16198;DHT22;8206;51.440;6.914;2023-11-21T01:39:59;7.70;99.90
16198;DHT22;8206;51.440;6.914;2023-11-21T01:42:26;7.80;99.90
16198;DHT22;8206;51.440;6.914;2023-11-21T01:44:54;7.80;99.90
16198;DHT22;8206;51.440;6.914;2023-11-21T01:47:22;7.80;99.90
16198;DHT22;8206;51.440;6.914;2023-11-21T01:49:49;7.90;99.90
16198;DHT22;8206;51.440;6.914;2023-11-21T01:52:16;7.90;99.90
16198;DHT22;8206;51.440;6.914;2023-11-21T01:54:43;7.90;99.90
16198;DHT22;8206;51.440;6.914;2023-11-21T01:57:10;7.90;99.90
16198;DHT22;8206;51.440;6.914;2023-11-21T01:59:37;7.90;99.90
16198;DHT22;8206;51.440;6.914;2023-11-21T02:02:05;7.90;99.90
16198;DHT22;8206;51.440;6.914;2023-11-21T02:04:34;7.90;99.90
16198;DHT22;8206;51.440;6.914;2023-11-21T02:07:02;7.90;99.90
16198;DHT22;8206;51.440;6.914;2023-11-21T02:09:31;7.90;99.90
16198;DHT22;8206;51.440;6.914;2023-11-21T02:11:59;7.90;99.90
16198;DHT22;8206;51.440;6.914;2023-11-21T02:14:26;7.90;99.90
16198;DHT22;8206;51.440;6.914;2023-11-21T02:16:53;7.90;99.90
16198;DHT22;8206;51.440;6.914;2023-11-21T02:19:22;7.90;99.90
16198;DHT22;8206;51.440;6.914;2023-11-21T02:21:52;7.90;99.90
16198;DHT22;8206;51.440;6.914;2023-11-21T02:24:22;7.90;99.90
16198;DHT22;8206;51.440;6.914;2023-11-21T02:26:49;7.90;99.90
16198;DHT22;8206;51.440;6.914;2023-11-21T02:29:16;7.80;99.90
16198;DHT22;8206;51.440;6.914;2023-11-21T02:31:44;7.80;99.90
16198;DHT22;8206;51.440;6.914;2023-11-21T02:34:14;7.80;99.90
16198;DHT22;8206;51.440;6.914;2023-11-21T02:36:41;7.80;99.90
16198;DHT22;8206;51.440;6.914;2023-11-21T02:39:08;7.80;99.90
16198;DHT22;8206;51.440;6.914;2023-11-21T02:41:37;7.90;99.90
16198;DHT22;8206;51.440;6.914;2023-11-21T02:44:05;7.80;99.90
16198;DHT22;8206;51.440;6.914;2023-11-21T02:46:32;7.90;99.90
16198;DHT22;8206;51.440;6.914;2023-11-21T02:48:59;7.90;99.90
16198;DHT22;8206;51.440;6.914;2023-11-21T02:51:26;7.90;99.90
16198;DHT22;8206;51.440;6.914;2023-11-21T02:53:53;7.90;99.90
16198;DHT22;8206;51.440;6.914;2023-11-21T02:56:20;7.90;99.90
16198;DHT22;8206;51.440;6.914;2023-11-21T02:58:48;7.90;99.90
16198;DHT22;8206;51.440;6.914;2023-11-21T03:01:14;7.90;99.90
16198;DHT22;8206;51.440;6.914;2023-11-21T03:03:42;7.90;99.90
16198;DHT22;8206;51.440;6.914;2023-11-21T03:06:09;7.90;99.90
16198;DHT22;8206;51.440;6.914;2023-11-21T03:08:35;8.00;99.90
16198;DHT22;8206;51.440;6.914;2023-11-21T03:11:02;8.00;99.90
16198;DHT22;8206;51.440;6.914;2023-11-21T03:13:29;8.00;99.90
16198;DHT22;8206;51.440;6.914;2023-11-21T03:15:57;8.00;99.90
16198;DHT22;8206;51.440;6.914;2023-11-21T03:18:24;8.00;99.90
16198;DHT22;8206;51.440;6.914;2023-11-21T03:20:52;7.90;99.90
16198;DHT22;8206;51.440;6.914;2023-11-21T03:23:18;8.00;99.90
16198;DHT22;8206;51.440;6.914;2023-11-21T03:25:45;7.90;99.90
16198;DHT22;8206;51.440;6.914;2023-11-21T03:28:12;7.90;99.90
16198;DHT22;8206;51.440;6.914;2023-11-21T03:30:38;7.90;99.90
16198;DHT22;8206;51.440;6.914;2023-11-21T03:33:06;8.00;99.90
16198;DHT22;8206;51.440;6.914;2023-11-21T03:35:33;8.00;99.90
16198;DHT22;8206;51.440;6.914;2023-11-21T03:38:00;8.00;99.90
16198;DHT22;8206;51.440;6.914;2023-11-21T03:40:27;8.00;99.90
16198;DHT22;8206;51.440;6.914;2023-11-21T03:42:53;8.00;99.90
16198;DHT22;8206;51.440;6.914;2023-11-21T03:45:20;8.00;99.90
16198;DHT22;8206;51.440;6.914;2023-11-21T03:47:47;8.00;99.90
16198;DHT22;8206;51.440;6.914;2023-11-21T03:50:15;8.10;99.90
16198;DHT22;8206;51.440;6.914;2023-11-21T03:52:42;8.10;99.90
16198;DHT22;8206;51.440;6.914;2023-11-21T03:55:09;8.10;99.90
16198;DHT22;8206;51.440;6.914;2023-11-21T03:57:36;8.10;99.90
16198;DHT22;8206;51.440;6.914;2023-11-21T04:00:04;8.00;99.90
16198;DHT22;8206;51.440;6.914;2023-11-21T04:02:34;8.00;99.90
16198;DHT22;8206;51.440;6.914;2023-11-21T04:05:00;8.10;99.90
16198;DHT22;8206;51.440;6.914;2023-11-21T04:07:30;8.00;99.90
16198;DHT22;8206;51.440;6.914;2023-11-21T04:09:56;8.00;99.90
16198;DHT22;8206;51.440;6.914;2023-11-21T04:12:23;8.00;99.90
16198;DHT22;8206;51.440;6.914;2023-11-21T04:14:49;8.00;99.90
16198;DHT22;8206;51.440;6.914;2023-11-21T04:17:18;8.00;99.90
16198;DHT22;8206;51.440;6.914;2023-11-21T04:19:44;8.00;99.90
16198;DHT22;8206;51.440;6.914;2023-11-21T04:22:11;8.00;99.90
16198;DHT22;8206;51.440;6.914;2023-11-21T04:24:39;8.00;99.90
16198;DHT22;8206;51.440;6.914;2023-11-21T04:27:06;8.10;99.90
16198;DHT22;8206;51.440;6.914;2023-11-21T04:29:33;8.10;99.90
16198;DHT22;8206;51.440;6.914;2023-11-21T04:32:00;8.20;99.90
16198;DHT22;8206;51.440;6.914;2023-11-21T04:34:28;8.20;99.90
16198;DHT22;8206;51.440;6.914;2023-11-21T04:36:56;8.20;99.90
16198;DHT22;8206;51.440;6.914;2023-11-21T04:39:22;8.20;99.90
16198;DHT22;8206;51.440;6.914;2023-11-21T04:41:51;8.30;99.90
16198;DHT22;8206;51.440;6.914;2023-11-21T04:44:18;8.30;99.90
16198;DHT22;8206;51.440;6.914;2023-11-21T04:46:44;8.30;99.90
16198;DHT22;8206;51.440;6.914;2023-11-21T04:49:11;8.30;99.90
16198;DHT22;8206;51.440;6.914;2023-11-21T04:51:38;8.30;99.90
16198;DHT22;8206;51.440;6.914;2023-11-21T04:54:05;8.40;99.90
16198;DHT22;8206;51.440;6.914;2023-11-21T04:56:32;8.30;99.90
16198;DHT22;8206;51.440;6.914;2023-11-21T04:59:00;8.30;99.90
16198;DHT22;8206;51.440;6.914;2023-11-21T05:01:26;8.30;99.90
16198;DHT22;8206;51.440;6.914;2023-11-21T05:03:53;8.30;99.90
16198;DHT22;8206;51.440;6.914;2023-11-21T05:06:20;8.40;99.90
16198;DHT22;8206;51.440;6.914;2023-11-21T05:08:47;8.40;99.90
16198;DHT22;8206;51.440;6.914;2023-11-21T05:11:23;8.40;99.90
16198;DHT22;8206;51.440;6.914;2023-11-21T05:13:50;8.40;99.90
16198;DHT22;8206;51.440;6.914;2023-11-21T05:16:18;8.30;99.90
16198;DHT22;8206;51.440;6.914;2023-11-21T05:18:45;8.40;99.90
16198;DHT22;8206;51.440;6.914;2023-11-21T05:21:12;8.30;99.90
16198;DHT22;8206;51.440;6.914;2023-11-21T05:23:38;8.30;99.90
16198;DHT22;8206;51.440;6.914;2023-11-21T05:26:05;8.30;99.90
16198;DHT22;8206;51.440;6.914;2023-11-21T05:28:32;8.20;99.90
16198;DHT22;8206;51.440;6.914;2023-11-21T05:30:59;8.20;99.90
16198;DHT22;8206;51.440;6.914;2023-11-21T05:33:28;8.10;99.90
16198;DHT22;8206;51.440;6.914;2023-11-21T05:35:55;8.10;99.90
16198;DHT22;8206;51.440;6.914;2023-11-21T05:38:21;8.10;99.90
16198;DHT22;8206;51.440;6.914;2023-11-21T05:40:48;8.00;99.90
16198;DHT22;8206;51.440;6.914;2023-11-21T05:43:15;8.00;99.90
16198;DHT22;8206;51.440;6.914;2023-11-21T05:45:42;8.00;99.90
16198;DHT22;8206;51.440;6.914;2023-11-21T05:48:08;8.00;99.90
16198;DHT22;8206;51.440;6.914;2023-11-21T05:50:36;7.90;99.90
16198;DHT22;8206;51.440;6.914;2023-11-21T05:53:04;8.00;99.90
16198;DHT22;8206;51.440;6.914;2023-11-21T05:55:30;7.90;99.90
16198;DHT22;8206;51.440;6.914;2023-11-21T05:57:57;8.00;99.90
16198;DHT22;8206;51.440;6.914;2023-11-21T06:00:24;8.00;99.90
16198;DHT22;8206;51.440;6.914;2023-11-21T06:02:53;8.00;99.90
16198;DHT22;8206;51.440;6.914;2023-11-21T06:05:21;8.00;99.90
16198;DHT22;8206;51.440;6.914;2023-11-21T06:07:50;8.00;99.90
16198;DHT22;8206;51.440;6.914;2023-11-21T06:10:16;8.00;99.90
16198;DHT22;8206;51.440;6.914;2023-11-21T06:12:45;8.00;99.90
16198;DHT22;8206;51.440;6.914;2023-11-21T06:15:12;8.00;99.90
16198;DHT22;8206;51.440;6.914;2023-11-21T06:17:40;8.00;99.90
16198;DHT22;8206;51.440;6.914;2023-11-21T06:20:08;8.00;99.90
16198;DHT22;8206;51.440;6.914;2023-11-21T06:22:41;8.00;99.90
16198;DHT22;8206;51.440;6.914;2023-11-21T06:25:10;8.00;99.90
16198;DHT22;8206;51.440;6.914;2023-11-21T06:27:39;8.00;99.90
16198;DHT22;8206;51.440;6.914;2023-11-21T06:30:07;8.10;99.90
16198;DHT22;8206;51.440;6.914;2023-11-21T06:32:35;8.10;99.90
16198;DHT22;8206;51.440;6.914;2023-11-21T06:35:02;8.10;99.90
16198;DHT22;8206;51.440;6.914;2023-11-21T06:37:30;8.10;99.90
16198;DHT22;8206;51.440;6.914;2023-11-21T06:39:58;8.10;99.90
16198;DHT22;8206;51.440;6.914;2023-11-21T06:42:27;8.20;99.90
16198;DHT22;8206;51.440;6.914;2023-11-21T06:44:54;8.20;99.90
16198;DHT22;8206;51.440;6.914;2023-11-21T06:47:22;8.20;99.90
16198;DHT22;8206;51.440;6.914;2023-11-21T06:49:51;8.30;99.90
16198;DHT22;8206;51.440;6.914;2023-11-21T06:52:18;8.30;99.90
16198;DHT22;8206;51.440;6.914;2023-11-21T06:54:45;8.30;99.90
16198;DHT22;8206;51.440;6.914;2023-11-21T06:57:13;8.30;99.90
16198;DHT22;8206;51.440;6.914;2023-11-21T06:59:41;8.30;99.90
16198;DHT22;8206;51.440;6.914;2023-11-21T07:02:08;8.30;99.90
16198;DHT22;8206;51.440;6.914;2023-11-21T07:04:35;8.40;99.90
16198;DHT22;8206;51.440;6.914;2023-11-21T07:07:02;8.40;99.90
16198;DHT22;8206;51.440;6.914;2023-11-21T07:09:29;8.40;99.90
16198;DHT22;8206;51.440;6.914;2023-11-21T07:11:56;8.40;99.90
16198;DHT22;8206;51.440;6.914;2023-11-21T07:14:23;8.50;99.90
16198;DHT22;8206;51.440;6.914;2023-11-21T07:16:51;8.50;99.90
16198;DHT22;8206;51.440;6.914;2023-11-21T07:19:18;8.50;99.90
16198;DHT22;8206;51.440;6.914;2023-11-21T07:21:45;8.50;99.90
16198;DHT22;8206;51.440;6.914;2023-11-21T07:24:12;8.60;99.90
16198;DHT22;8206;51.440;6.914;2023-11-21T07:26:38;8.60;99.90
16198;DHT22;8206;51.440;6.914;2023-11-21T07:29:06;8.70;99.90
16198;DHT22;8206;51.440;6.914;2023-11-21T07:31:32;8.80;99.90
16198;DHT22;8206;51.440;6.914;2023-11-21T07:34:01;8.80;99.90
16198;DHT22;8206;51.440;6.914;2023-11-21T07:36:28;8.80;99.90
16198;DHT22;8206;51.440;6.914;2023-11-21T07:38:55;8.90;99.90
16198;DHT22;8206;51.440;6.914;2023-11-21T07:41:21;8.80;99.90
16198;DHT22;8206;51.440;6.914;2023-11-21T07:43:48;8.90;99.90
16198;DHT22;8206;51.440;6.914;2023-11-21T07:46:15;9.00;99.90
16198;DHT22;8206;51.440;6.914;2023-11-21T07:48:42;9.00;99.90
16198;DHT22;8206;51.440;6.914;2023-11-21T07:51:10;9.00;99.90
16198;DHT22;8206;51.440;6.914;2023-11-21T07:53:38;9.00;99.90
16198;DHT22;8206;51.440;6.914;2023-11-21T07:56:07;9.10;99.90
16198;DHT22;8206;51.440;6.914;2023-11-21T07:58:34;9.10;99.90
16198;DHT22;8206;51.440;6.914;2023-11-21T08:01:01;9.20;99.90
16198;DHT22;8206;51.440;6.914;2023-11-21T08:03:28;9.30;99.90
16198;DHT22;8206;51.440;6.914;2023-11-21T08:05:55;9.40;99.90
16198;DHT22;8206;51.440;6.914;2023-11-21T08:08:24;9.50;99.90
16198;DHT22;8206;51.440;6.914;2023-11-21T08:10:51;9.50;99.90
16198;DHT22;8206;51.440;6.914;2023-11-21T08:13:21;9.50;99.90
16198;DHT22;8206;51.440;6.914;2023-11-21T08:15:48;9.50;99.90
16198;DHT22;8206;51.440;6.914;2023-11-21T08:18:15;9.50;99.90
16198;DHT22;8206;51.440;6.914;2023-11-21T08:20:43;9.50;99.90
16198;DHT22;8206;51.440;6.914;2023-11-21T08:23:13;9.40;99.90
16198;DHT22;8206;51.440;6.914;2023-11-21T08:25:42;9.40;99.90
16198;DHT22;8206;51.440;6.914;2023-11-21T08:28:09;9.30;99.90
16198;DHT22;8206;51.440;6.914;2023-11-21T08:30:36;9.30;99.90
16198;DHT22;8206;51.440;6.914;2023-11-21T08:33:03;9.30;99.90
16198;DHT22;8206;51.440;6.914;2023-11-21T08:35:29;9.30;99.90
16198;DHT22;8206;51.440;6.914;2023-11-21T08:37:56;9.40;99.90
16198;DHT22;8206;51.440;6.914;2023-11-21T08:40:23;9.40;99.90
16198;DHT22;8206;51.440;6.914;2023-11-21T08:42:52;9.30;99.90
16198;DHT22;8206;51.440;6.914;2023-11-21T08:45:19;9.40;99.90
16198;DHT22;8206;51.440;6.914;2023-11-21T08:47:46;9.40;99.90
16198;DHT22;8206;51.440;6.914;2023-11-21T08:50:13;9.50;99.90
16198;DHT22;8206;51.440;6.914;2023-11-21T08:52:41;9.60;99.90
16198;DHT22;8206;51.440;6.914;2023-11-21T08:55:08;9.70;99.90
16198;DHT22;8206;51.440;6.914;2023-11-21T08:57:38;9.80;99.90
16198;DHT22;8206;51.440;6.914;2023-11-21T09:00:08;9.90;99.90
16198;DHT22;8206;51.440;6.914;2023-11-21T09:02:37;10.00;99.90
16198;DHT22;8206;51.440;6.914;2023-11-21T09:05:04;10.10;99.90
16198;DHT22;8206;51.440;6.914;2023-11-21T09:07:31;10.00;99.90
16198;DHT22;8206;51.440;6.914;2023-11-21T09:09:58;10.00;99.90
16198;DHT22;8206;51.440;6.914;2023-11-21T09:12:24;10.00;99.90
16198;DHT22;8206;51.440;6.914;2023-11-21T09:14:51;9.90;99.90
16198;DHT22;8206;51.440;6.914;2023-11-21T09:17:19;10.00;99.90
16198;DHT22;8206;51.440;6.914;2023-11-21T09:19:46;10.10;99.90
16198;DHT22;8206;51.440;6.914;2023-11-21T09:22:16;10.10;99.90
16198;DHT22;8206;51.440;6.914;2023-11-21T09:24:43;10.10;99.90
16198;DHT22;8206;51.440;6.914;2023-11-21T09:27:10;10.10;99.90
16198;DHT22;8206;51.440;6.914;2023-11-21T09:29:36;10.10;99.90
16198;DHT22;8206;51.440;6.914;2023-11-21T09:32:04;10.10;99.90
16198;DHT22;8206;51.440;6.914;2023-11-21T09:34:33;10.20;99.90
16198;DHT22;8206;51.440;6.914;2023-11-21T09:37:01;10.20;99.90
16198;DHT22;8206;51.440;6.914;2023-11-21T09:39:31;10.20;99.90
16198;DHT22;8206;51.440;6.914;2023-11-21T09:42:04;10.20;99.90
16198;DHT22;8206;51.440;6.914;2023-11-21T09:44:46;10.30;99.90
16198;DHT22;8206;51.440;6.914;2023-11-21T09:47:15;10.30;99.90
16198;DHT22;8206;51.440;6.914;2023-11-21T09:49:47;10.20;99.90
16198;DHT22;8206;51.440;6.914;2023-11-21T09:52:24;10.10;99.90
16198;DHT22;8206;51.440;6.914;2023-11-21T09:54:52;10.10;99.90
16198;DHT22;8206;51.440;6.914;2023-11-21T09:57:20;10.20;99.90
16198;DHT22;8206;51.440;6.914;2023-11-21T09:59:49;10.10;99.90
16198;DHT22;8206;51.440;6.914;2023-11-21T10:02:17;10.10;99.90
16198;DHT22;8206;51.440;6.914;2023-11-21T10:04:47;10.10;99.90
16198;DHT22;8206;51.440;6.914;2023-11-21T10:07:16;10.00;99.90
16198;DHT22;8206;51.440;6.914;2023-11-21T10:09:44;10.00;99.90
16198;DHT22;8206;51.440;6.914;2023-11-21T10:12:12;10.00;99.90
16198;DHT22;8206;51.440;6.914;2023-11-21T10:14:41;10.00;99.90
16198;DHT22;8206;51.440;6.914;2023-11-21T10:17:10;10.10;99.90
16198;DHT22;8206;51.440;6.914;2023-11-21T10:19:39;10.30;99.90
16198;DHT22;8206;51.440;6.914;2023-11-21T10:22:07;10.40;99.90
16198;DHT22;8206;51.440;6.914;2023-11-21T10:24:35;10.50;99.90
16198;DHT22;8206;51.440;6.914;2023-11-21T10:27:03;10.60;99.90
16198;DHT22;8206;51.440;6.914;2023-11-21T10:29:29;10.70;99.90
16198;DHT22;8206;51.440;6.914;2023-11-21T10:31:56;10.90;99.90
16198;DHT22;8206;51.440;6.914;2023-11-21T10:34:24;11.10;99.90
16198;DHT22;8206;51.440;6.914;2023-11-21T10:36:53;11.10;99.90
16198;DHT22;8206;51.440;6.914;2023-11-21T10:39:24;11.10;99.90
16198;DHT22;8206;51.440;6.914;2023-11-21T10:41:55;11.30;99.90
16198;DHT22;8206;51.440;6.914;2023-11-21T10:44:21;11.20;99.90
16198;DHT22;8206;51.440;6.914;2023-11-21T10:46:50;11.20;99.90
16198;DHT22;8206;51.440;6.914;2023-11-21T10:49:17;11.30;99.90
16198;DHT22;8206;51.440;6.914;2023-11-21T10:51:45;11.30;99.90
16198;DHT22;8206;51.440;6.914;2023-11-21T10:54:17;11.20;99.90
16198;DHT22;8206;51.440;6.914;2023-11-21T10:56:46;11.00;99.90
16198;DHT22;8206;51.440;6.914;2023-11-21T10:59:14;10.90;99.90
16198;DHT22;8206;51.440;6.914;2023-11-21T11:01:42;10.80;99.90
16198;DHT22;8206;51.440;6.914;2023-11-21T11:04:11;10.80;99.90
16198;DHT22;8206;51.440;6.914;2023-11-21T11:06:42;10.80;99.90
16198;DHT22;8206;51.440;6.914;2023-11-21T11:09:10;11.00;99.90
16198;DHT22;8206;51.440;6.914;2023-11-21T11:11:39;11.20;99.90
16198;DHT22;8206;51.440;6.914;2023-11-21T11:14:09;11.30;99.90
16198;DHT22;8206;51.440;6.914;2023-11-21T11:16:38;11.40;99.90
16198;DHT22;8206;51.440;6.914;2023-11-21T11:19:06;11.40;99.90
16198;DHT22;8206;51.440;6.914;2023-11-21T11:21:43;11.50;99.90
16198;DHT22;8206;51.440;6.914;2023-11-21T11:27:15;11.50;99.90
16198;DHT22;8206;51.440;6.914;2023-11-21T11:29:57;11.60;99.90
16198;DHT22;8206;51.440;6.914;2023-11-21T11:32:36;11.70;99.90
16198;DHT22;8206;51.440;6.914;2023-11-21T11:35:10;11.80;99.90
16198;DHT22;8206;51.440;6.914;2023-11-21T11:37:42;11.60;99.90
16198;DHT22;8206;51.440;6.914;2023-11-21T11:40:11;11.60;99.90
16198;DHT22;8206;51.440;6.914;2023-11-21T11:42:38;11.40;99.90
16198;DHT22;8206;51.440;6.914;2023-11-21T11:45:18;11.30;99.90
16198;DHT22;8206;51.440;6.914;2023-11-21T11:47:47;11.20;99.90
16198;DHT22;8206;51.440;6.914;2023-11-21T11:50:14;11.10;99.90
16198;DHT22;8206;51.440;6.914;2023-11-21T11:52:43;11.00;99.90
16198;DHT22;8206;51.440;6.914;2023-11-21T11:55:11;11.00;99.90
16198;DHT22;8206;51.440;6.914;2023-11-21T11:57:39;10.90;99.90
16198;DHT22;8206;51.440;6.914;2023-11-21T12:00:14;11.00;99.90
16198;DHT22;8206;51.440;6.914;2023-11-21T12:02:48;11.00;99.90
16198;DHT22;8206;51.440;6.914;2023-11-21T12:05:16;11.00;99.90
16198;DHT22;8206;51.440;6.914;2023-11-21T12:07:50;11.00;99.90
16198;DHT22;8206;51.440;6.914;2023-11-21T12:10:20;11.00;99.90
16198;DHT22;8206;51.440;6.914;2023-11-21T12:12:49;10.80;99.90
16198;DHT22;8206;51.440;6.914;2023-11-21T12:15:18;10.90;99.90
16198;DHT22;8206;51.440;6.914;2023-11-21T12:17:47;11.00;99.90
16198;DHT22;8206;51.440;6.914;2023-11-21T12:20:18;11.10;99.90
16198;DHT22;8206;51.440;6.914;2023-11-21T12:22:46;11.30;99.90
16198;DHT22;8206;51.440;6.914;2023-11-21T12:25:14;11.30;99.90
16198;DHT22;8206;51.440;6.914;2023-11-21T12:27:44;11.10;99.90
16198;DHT22;8206;51.440;6.914;2023-11-21T12:30:12;11.00;99.90
16198;DHT22;8206;51.440;6.914;2023-11-21T12:32:41;10.80;99.90
16198;DHT22;8206;51.440;6.914;2023-11-21T12:35:10;10.90;99.90
16198;DHT22;8206;51.440;6.914;2023-11-21T12:37:37;10.90;99.90
16198;DHT22;8206;51.440;6.914;2023-11-21T12:40:06;10.90;99.90
16198;DHT22;8206;51.440;6.914;2023-11-21T12:42:33;11.10;99.90
16198;DHT22;8206;51.440;6.914;2023-11-21T12:45:08;10.90;99.90
16198;DHT22;8206;51.440;6.914;2023-11-21T12:47:40;10.70;99.90
16198;DHT22;8206;51.440;6.914;2023-11-21T12:50:09;10.70;99.90
16198;DHT22;8206;51.440;6.914;2023-11-21T12:52:44;10.60;99.90
16198;DHT22;8206;51.440;6.914;2023-11-21T12:55:16;10.50;99.90
16198;DHT22;8206;51.440;6.914;2023-11-21T12:57:44;10.40;99.90
16198;DHT22;8206;51.440;6.914;2023-11-21T13:00:12;10.20;99.90
16198;DHT22;8206;51.440;6.914;2023-11-21T13:02:51;10.00;99.90
16198;DHT22;8206;51.440;6.914;2023-11-21T13:05:28;9.80;99.90
16198;DHT22;8206;51.440;6.914;2023-11-21T13:07:56;9.80;99.90
16198;DHT22;8206;51.440;6.914;2023-11-21T13:10:24;9.90;99.90
16198;DHT22;8206;51.440;6.914;2023-11-21T13:12:55;9.90;99.90
16198;DHT22;8206;51.440;6.914;2023-11-21T13:15:23;9.90;99.90
16198;DHT22;8206;51.440;6.914;2023-11-21T13:17:50;9.80;99.90
16198;DHT22;8206;51.440;6.914;2023-11-21T13:20:19;9.70;99.90
16198;DHT22;8206;51.440;6.914;2023-11-21T13:22:48;9.60;99.90
16198;DHT22;8206;51.440;6.914;2023-11-21T13:25:16;9.60;99.90
16198;DHT22;8206;51.440;6.914;2023-11-21T13:27:45;9.60;99.90
16198;DHT22;8206;51.440;6.914;2023-11-21T13:30:13;9.60;99.90
16198;DHT22;8206;51.440;6.914;2023-11-21T13:32:45;9.70;99.90
16198;DHT22;8206;51.440;6.914;2023-11-21T13:35:12;9.70;99.90
16198;DHT22;8206;51.440;6.914;2023-11-21T13:37:49;9.70;99.90
16198;DHT22;8206;51.440;6.914;2023-11-21T13:40:20;9.70;99.90
16198;DHT22;8206;51.440;6.914;2023-11-21T13:42:51;9.80;99.90
16198;DHT22;8206;51.440;6.914;2023-11-21T13:45:20;9.80;99.90
16198;DHT22;8206;51.440;6.914;2023-11-21T13:47:48;9.80;99.90
16198;DHT22;8206;51.440;6.914;2023-11-21T13:50:16;9.80;99.90
16198;DHT22;8206;51.440;6.914;2023-11-21T13:52:49;9.90;99.90
16198;DHT22;8206;51.440;6.914;2023-11-21T13:55:18;9.90;99.90
16198;DHT22;8206;51.440;6.914;2023-11-21T13:57:46;10.00;99.90
16198;DHT22;8206;51.440;6.914;2023-11-21T14:00:16;10.10;99.90
16198;DHT22;8206;51.440;6.914;2023-11-21T14:03:06;10.10;99.90
16198;DHT22;8206;51.440;6.914;2023-11-21T14:05:41;10.00;99.90
16198;DHT22;8206;51.440;6.914;2023-11-21T14:08:10;9.90;99.90
16198;DHT22;8206;51.440;6.914;2023-11-21T14:10:42;9.90;99.90
16198;DHT22;8206;51.440;6.914;2023-11-21T14:13:10;9.90;99.90
16198;DHT22;8206;51.440;6.914;2023-11-21T14:15:39;9.90;99.90
16198;DHT22;8206;51.440;6.914;2023-11-21T14:18:08;9.90;99.90
16198;DHT22;8206;51.440;6.914;2023-11-21T14:20:36;9.80;99.90
16198;DHT22;8206;51.440;6.914;2023-11-21T14:23:03;9.80;99.90
16198;DHT22;8206;51.440;6.914;2023-11-21T14:25:33;9.80;99.90
16198;DHT22;8206;51.440;6.914;2023-11-21T14:28:02;9.90;99.90
16198;DHT22;8206;51.440;6.914;2023-11-21T14:30:30;9.90;99.90
16198;DHT22;8206;51.440;6.914;2023-11-21T14:32:58;9.80;99.90
16198;DHT22;8206;51.440;6.914;2023-11-21T14:35:26;9.80;99.90
16198;DHT22;8206;51.440;6.914;2023-11-21T14:37:53;9.80;99.90
16198;DHT22;8206;51.440;6.914;2023-11-21T14:40:20;9.90;99.90
16198;DHT22;8206;51.440;6.914;2023-11-21T14:42:51;9.80;99.90
16198;DHT22;8206;51.440;6.914;2023-11-21T14:45:20;9.80;99.90
16198;DHT22;8206;51.440;6.914;2023-11-21T14:47:48;9.90;99.90
16198;DHT22;8206;51.440;6.914;2023-11-21T14:50:22;9.80;99.90
16198;DHT22;8206;51.440;6.914;2023-11-21T14:53:13;9.80;99.90
16198;DHT22;8206;51.440;6.914;2023-11-21T14:55:39;9.80;99.90
16198;DHT22;8206;51.440;6.914;2023-11-21T14:58:21;9.70;99.90
16198;DHT22;8206;51.440;6.914;2023-11-21T15:00:53;9.70;99.90
16198;DHT22;8206;51.440;6.914;2023-11-21T15:03:23;9.70;99.90
16198;DHT22;8206;51.440;6.914;2023-11-21T15:06:08;9.60;99.90
16198;DHT22;8206;51.440;6.914;2023-11-21T15:08:49;9.60;99.90
16198;DHT22;8206;51.440;6.914;2023-11-21T15:11:21;9.60;99.90
16198;DHT22;8206;51.440;6.914;2023-11-21T15:13:56;9.60;99.90
16198;DHT22;8206;51.440;6.914;2023-11-21T15:16:22;9.60;99.90
16198;DHT22;8206;51.440;6.914;2023-11-21T15:18:51;9.60;99.90
16198;DHT22;8206;51.440;6.914;2023-11-21T15:21:18;9.60;99.90
16198;DHT22;8206;51.440;6.914;2023-11-21T15:23:47;9.60;99.90
16198;DHT22;8206;51.440;6.914;2023-11-21T15:26:13;9.60;99.90
16198;DHT22;8206;51.440;6.914;2023-11-21T15:28:40;9.60;99.90
16198;DHT22;8206;51.440;6.914;2023-11-21T15:31:08;9.50;99.90
16198;DHT22;8206;51.440;6.914;2023-11-21T15:33:35;9.50;99.90
16198;DHT22;8206;51.440;6.914;2023-11-21T15:36:03;9.50;99.90
16198;DHT22;8206;51.440;6.914;2023-11-21T15:38:30;9.40;99.90
16198;DHT22;8206;51.440;6.914;2023-11-21T15:40:57;9.40;99.90
16198;DHT22;8206;51.440;6.914;2023-11-21T15:43:25;9.30;99.90
16198;DHT22;8206;51.440;6.914;2023-11-21T15:45:53;9.20;99.90
16198;DHT22;8206;51.440;6.914;2023-11-21T15:48:22;9.20;99.90
16198;DHT22;8206;51.440;6.914;2023-11-21T15:50:48;9.20;99.90
16198;DHT22;8206;51.440;6.914;2023-11-21T15:53:17;9.10;99.90
16198;DHT22;8206;51.440;6.914;2023-11-21T15:55:44;9.10;99.90
16198;DHT22;8206;51.440;6.914;2023-11-21T15:58:11;9.00;99.90
16198;DHT22;8206;51.440;6.914;2023-11-21T16:00:38;9.00;99.90
16198;DHT22;8206;51.440;6.914;2023-11-21T16:03:04;8.90;99.90
16198;DHT22;8206;51.440;6.914;2023-11-21T16:05:32;8.90;99.90
16198;DHT22;8206;51.440;6.914;2023-11-21T16:08:01;8.80;99.90